Time;durP1;ratioP1;P1;durP2;ratioP2;P2;SDS_P1;SDS_P2;PMS_P1;PMS_P2;Temp;Humidity;BMP_temperature;BMP_pressure;BME280_temperature;BME280_humidity;BME280_pressure;Samples;Min_cycle;Max_cycle;Signal;HPM_P1;HPM_P2
2023/02/28 00:00:00;;;;;;;10.17;8.07;;;;;;;-0.85;100.00;101768.88;5080072;28;20483;-69
2023/02/28 00:02:27;;;;;;;11.53;7.57;;;;;;;-0.80;100.00;101769.63;5080247;28;20487;-69
2023/02/28 00:05:00;;;;;;;9.97;7.07;;;;;;;-0.78;100.00;101768.72;5082183;28;20446;-68
2023/02/28 00:07:28;;;;;;;8.35;7.25;;;;;;;-0.69;100.00;101765.06;5080431;28;20510;-68
2023/02/28 00:09:55;;;;;;;10.37;7.63;;;;;;;-0.59;100.00;101760.44;5081602;28;20202;-69
2023/02/28 00:12:22;;;;;;;10.80;7.73;;;;;;;-0.46;100.00;101753.19;5081037;28;20480;-68
2023/02/28 00:14:49;;;;;;;9.90;7.90;;;;;;;-0.37;100.00;101755.63;5081776;28;20486;-69
2023/02/28 00:17:17;;;;;;;8.67;7.10;;;;;;;-0.38;100.00;101748.66;5079916;28;20518;-69
2023/02/28 00:19:44;;;;;;;10.13;7.73;;;;;;;-0.38;100.00;101752.13;5068357;28;20441;-69
2023/02/28 00:22:10;;;;;;;14.90;8.40;;;;;;;-0.41;100.00;101751.34;5040858;28;20497;-69
2023/02/28 00:24:39;;;;;;;12.23;7.67;;;;;;;-0.44;100.00;101748.75;5059635;28;20467;-69
2023/02/28 00:27:05;;;;;;;9.23;7.60;;;;;;;-0.32;100.00;101759.00;5067540;28;20492;-69
2023/02/28 00:29:32;;;;;;;9.23;7.40;;;;;;;-0.28;100.00;101749.28;5081106;28;20439;-69
2023/02/28 00:31:59;;;;;;;10.03;7.43;;;;;;;-0.25;100.00;101755.34;5078008;28;20541;-69
2023/02/28 00:34:25;;;;;;;10.63;7.53;;;;;;;-0.25;100.00;101757.97;5060569;28;20445;-70
2023/02/28 00:36:52;;;;;;;16.30;7.60;;;;;;;-0.25;100.00;101757.13;5061391;28;20473;-69
2023/02/28 00:39:18;;;;;;;13.77;7.97;;;;;;;-0.21;100.00;101758.75;5080702;28;21103;-69
2023/02/28 00:41:46;;;;;;;11.50;8.07;;;;;;;-0.16;100.00;101764.78;5075340;28;20487;-69
2023/02/28 00:44:13;;;;;;;9.13;7.10;;;;;;;-0.21;100.00;101757.03;5069352;28;20475;-70
2023/02/28 00:46:40;;;;;;;8.20;6.73;;;;;;;-0.19;100.00;101762.25;5077366;28;20500;-69
2023/02/28 00:49:06;;;;;;;11.33;7.30;;;;;;;-0.14;100.00;101763.00;5080996;28;20443;-69
2023/02/28 00:51:33;;;;;;;11.07;7.17;;;;;;;-0.09;100.00;101763.75;5080072;28;20472;-70
2023/02/28 00:54:00;;;;;;;11.13;7.40;;;;;;;-0.15;100.00;101766.53;5080877;28;20444;-69
2023/02/28 00:56:26;;;;;;;10.13;7.20;;;;;;;-0.31;100.00;101762.50;5079794;28;20472;-70
2023/02/28 00:58:54;;;;;;;8.37;7.43;;;;;;;-0.35;100.00;101769.56;5080327;28;20503;-69
2023/02/28 01:01:21;;;;;;;13.10;7.90;;;;;;;-0.39;100.00;101768.78;5080112;28;20538;-69
2023/02/28 01:03:48;;;;;;;10.73;7.47;;;;;;;-0.87;100.00;101773.28;5080270;28;20557;-69
2023/02/28 01:06:14;;;;;;;13.37;7.63;;;;;;;-0.70;100.00;101772.97;5080759;28;20548;-69
2023/02/28 01:08:41;;;;;;;9.27;7.17;;;;;;;-0.64;100.00;101778.09;5080558;28;20471;-69
2023/02/28 01:11:09;;;;;;;8.57;7.07;;;;;;;-0.66;100.00;101775.50;5080032;28;20502;-69
2023/02/28 01:13:36;;;;;;;10.17;7.17;;;;;;;-0.70;100.00;101772.97;5063291;28;20490;-69
2023/02/28 01:16:04;;;;;;;12.30;7.30;;;;;;;-0.72;100.00;101777.38;5059755;28;20479;-70
2023/02/28 01:18:31;;;;;;;9.77;6.20;;;;;;;-0.77;100.00;101769.59;5062134;28;20487;-71
2023/02/28 01:20:58;;;;;;;12.07;7.90;;;;;;;-0.77;100.00;101772.22;5067616;28;20472;-68
2023/02/28 01:23:25;;;;;;;9.83;7.60;;;;;;;-0.79;100.00;101779.25;5082697;28;20522;-70
2023/02/28 01:25:52;;;;;;;9.07;7.27;;;;;;;-0.92;100.00;101775.13;5077863;28;20499;-70
2023/02/28 01:28:18;;;;;;;7.17;6.37;;;;;;;-0.91;100.00;101774.25;5078740;28;20476;-69
2023/02/28 01:30:48;;;;;;;8.38;6.85;;;;;;;-0.92;100.00;101773.41;5073175;28;20522;-69
2023/02/28 01:33:16;;;;;;;9.82;7.60;;;;;;;-1.00;100.00;101778.78;5073853;28;20310;-69
2023/02/28 01:35:43;;;;;;;7.70;6.10;;;;;;;-1.04;100.00;101769.25;5068833;28;20262;-69
2023/02/28 01:38:10;;;;;;;9.10;6.30;;;;;;;-1.06;100.00;101772.78;5078427;28;20448;-69
2023/02/28 01:40:36;;;;;;;9.17;6.63;;;;;;;-1.06;100.00;101772.78;5075695;28;20516;-69
2023/02/28 01:43:03;;;;;;;9.20;6.43;;;;;;;-1.12;100.00;101768.50;5086375;28;20499;-71
2023/02/28 01:45:31;;;;;;;11.32;8.02;;;;;;;-1.24;100.00;101766.09;5076484;28;20705;-70
2023/02/28 01:48:00;;;;;;;10.98;7.38;;;;;;;-1.28;100.00;101765.31;5071024;28;20229;-70
2023/02/28 01:50:31;;;;;;;10.30;6.77;;;;;;;-1.23;100.00;101773.97;5068848;28;20249;-70
2023/02/28 01:52:59;;;;;;;9.87;7.37;;;;;;;-1.18;100.00;101766.88;5083586;28;20507;-70
2023/02/28 01:55:28;;;;;;;8.23;6.90;;;;;;;-1.14;100.00;101779.03;5082414;28;20940;-69
2023/02/28 01:57:57;;;;;;;8.57;6.47;;;;;;;-1.16;100.00;101769.47;5086976;28;20661;-69
2023/02/28 02:00:26;;;;;;;11.13;7.28;;;;;;;-1.17;100.00;101767.72;5085222;28;20479;-69
2023/02/28 02:02:55;;;;;;;8.68;7.13;;;;;;;-1.18;100.00;101772.13;5078260;28;20232;-69
2023/02/28 02:05:23;;;;;;;8.27;7.38;;;;;;;-1.24;100.00;101766.97;5073232;28;20207;-69
2023/02/28 02:07:55;;;;;;;8.40;7.60;;;;;;;-1.19;100.00;101774.75;5087050;28;20229;-69
2023/02/28 02:10:26;;;;;;;7.63;6.20;;;;;;;-1.23;100.00;101767.81;5066813;28;20519;-72
2023/02/28 02:13:06;;;;;;;14.33;7.07;;;;;;;-1.19;100.00;101772.13;5066945;28;20249;-69
2023/02/28 02:15:35;;;;;;;9.90;7.00;;;;;;;-1.15;100.00;101776.44;5078927;28;20495;-70
2023/02/28 02:18:06;;;;;;;9.13;7.83;;;;;;;-1.14;100.00;101765.91;5082747;28;20496;-71
2023/02/28 02:21:05;;;;;;;10.43;7.70;;;;;;;-1.01;100.00;101774.44;5066407;28;20510;-69
2023/02/28 02:24:23;;;;;;;9.90;6.90;;;;;;;-0.98;100.00;101757.75;5046479;28;20508;-69
2023/02/28 02:27:00;;;;;;;19.30;7.65;;;;;;;-0.99;100.00;101769.13;4959863;28;20517;-69
2023/02/28 02:29:39;;;;;;;12.10;7.65;;;;;;;-0.97;100.00;101760.34;5050007;28;20201;-69
2023/02/28 02:32:26;;;;;;;14.95;6.90;;;;;;;-0.93;100.00;101758.53;5066194;28;20244;-70
2023/02/28 02:35:02;;;;;;;9.67;6.60;;;;;;;-0.91;100.00;101769.00;5062442;28;20273;-69
2023/02/28 02:37:35;;;;;;;8.70;6.90;;;;;;;-0.98;100.00;101750.72;5042939;28;20559;-69
2023/02/28 02:40:07;;;;;;;7.93;7.23;;;;;;;-1.04;100.00;101758.72;5065135;28;20464;-69
2023/02/28 02:42:40;;;;;;;12.13;7.07;;;;;;;-1.08;100.00;101762.28;5082619;28;20487;-69
2023/02/28 02:45:10;;;;;;;8.50;7.40;;;;;;;-1.14;100.00;101754.56;5083120;28;20477;-69
2023/02/28 02:47:38;;;;;;;10.30;7.20;;;;;;;-1.22;100.00;101759.94;5076913;28;20674;-68
2023/02/28 02:50:11;;;;;;;8.93;7.00;;;;;;;-1.35;100.00;101753.19;5070045;28;21291;-68
2023/02/28 02:52:40;;;;;;;9.60;6.93;;;;;;;-1.37;100.00;101761.09;5082935;28;20233;-68
2023/02/28 02:55:10;;;;;;;8.73;6.55;;;;;;;-1.36;100.00;101764.56;5079191;28;20435;-68
2023/02/28 02:57:41;;;;;;;9.13;6.28;;;;;;;-1.41;100.00;101763.78;5069603;28;20186;-68
2023/02/28 03:00:10;;;;;;;9.27;6.53;;;;;;;-1.43;100.00;101770.81;5066757;28;20225;-68
2023/02/28 03:02:38;;;;;;;7.85;6.22;;;;;;;-1.46;100.00;101771.72;5074579;28;20530;-68
2023/02/28 03:05:09;;;;;;;9.00;6.20;;;;;;;-1.45;100.00;101773.47;5075474;28;20793;-68
2023/02/28 03:07:36;;;;;;;14.03;6.80;;;;;;;-1.51;100.00;101770.97;5066952;28;20440;-68
2023/02/28 03:10:03;;;;;;;7.00;6.30;;;;;;;-1.49;100.00;101768.28;5065181;28;20548;-68
2023/02/28 03:12:46;;;;;;;9.37;6.93;;;;;;;-1.55;100.00;101777.97;5070164;28;20488;-68
2023/02/28 03:15:17;;;;;;;10.33;6.27;;;;;;;-1.56;100.00;101784.13;5072404;28;20455;-67
2023/02/28 03:17:51;;;;;;;10.02;7.07;;;;;;;-1.66;100.00;101764.19;5065235;28;21592;-67
2023/02/28 03:20:28;;;;;;;8.45;6.43;;;;;;;-1.69;100.00;101766.00;5082541;28;20224;-67
2023/02/28 03:23:02;;;;;;;8.03;6.63;;;;;;;-1.73;100.00;101765.19;5043137;28;20224;-68
2023/02/28 03:25:33;;;;;;;10.88;7.75;;;;;;;-1.75;100.00;101762.59;5061741;28;20539;-68
2023/02/28 03:28:04;;;;;;;8.38;6.68;;;;;;;-1.80;100.00;101766.19;5074025;28;20227;-68
2023/02/28 03:30:37;;;;;;;10.35;6.25;;;;;;;-1.75;100.00;101770.47;5081061;28;20229;-68
2023/02/28 03:33:07;;;;;;;10.23;7.23;;;;;;;-1.57;100.00;101764.03;5074456;28;20202;-69
2023/02/28 03:35:38;;;;;;;8.35;6.97;;;;;;;-1.68;100.00;101762.47;5068110;28;20553;-68
2023/02/28 03:38:09;;;;;;;8.40;6.80;;;;;;;-1.74;100.00;101760.81;5082963;28;20224;-68
2023/02/28 03:40:38;;;;;;;8.20;7.03;;;;;;;-1.69;100.00;101766.00;5062753;28;20468;-68
2023/02/28 03:43:09;;;;;;;8.67;6.43;;;;;;;-1.70;100.00;101765.16;5061221;28;20268;-68
2023/02/28 03:45:38;;;;;;;10.60;6.50;;;;;;;-1.69;100.00;101760.75;5064559;28;20503;-68
2023/02/28 03:48:10;;;;;;;8.40;6.80;;;;;;;-1.74;100.00;101766.06;5078003;28;20236;-68
2023/02/28 03:50:40;;;;;;;10.15;7.70;;;;;;;-1.72;100.00;101764.28;5080228;28;20603;-68
2023/02/28 03:53:09;;;;;;;9.20;6.88;;;;;;;-1.76;100.00;101760.84;5081692;28;20268;-68
2023/02/28 03:55:40;;;;;;;9.32;6.38;;;;;;;-1.78;100.00;101759.16;5081811;28;20253;-68
2023/02/28 03:58:15;;;;;;;7.93;6.10;;;;;;;-1.84;100.00;101762.75;5081438;28;20217;-68
2023/02/28 04:00:46;;;;;;;6.73;6.13;;;;;;;-1.87;100.00;101765.41;5079845;28;20247;-67
2023/02/28 04:03:12;;;;;;;7.80;6.67;;;;;;;-1.95;100.00;101765.50;5081321;28;20487;-67
2023/02/28 04:05:50;;;;;;;6.85;6.15;;;;;;;-1.97;100.00;101769.91;5081016;28;20478;-67
2023/02/28 04:08:16;;;;;;;10.43;6.70;;;;;;;-2.14;100.00;101767.53;5081829;28;20233;-67
2023/02/28 04:10:46;;;;;;;8.00;6.88;;;;;;;-2.08;100.00;101769.22;5081083;28;20694;-68
2023/02/28 04:13:13;;;;;;;13.05;6.60;;;;;;;-2.05;100.00;101769.16;5081042;28;20955;-67
2023/02/28 04:15:39;;;;;;;8.05;6.47;;;;;;;-2.10;100.00;101765.72;5081087;28;20251;-67
2023/02/28 04:18:06;;;;;;;10.65;6.03;;;;;;;-2.09;100.00;101770.09;5081076;28;20255;-67
2023/02/28 04:20:34;;;;;;;8.50;6.70;;;;;;;-2.08;100.00;101764.84;5071903;28;20289;-67
2023/02/28 04:23:02;;;;;;;9.10;6.70;;;;;;;-2.10;100.00;101768.34;5064552;28;20228;-68
2023/02/28 04:25:28;;;;;;;9.02;6.50;;;;;;;-2.13;100.00;101771.91;5061465;28;20721;-68
2023/02/28 04:27:55;;;;;;;6.50;5.80;;;;;;;-2.21;100.00;101758.03;5061704;28;20207;-68
2023/02/28 04:30:21;;;;;;;10.40;6.30;;;;;;;-2.33;100.00;101760.84;5076081;28;20229;-67
2023/02/28 04:32:48;;;;;;;16.67;7.72;;;;;;;-2.34;100.00;101766.97;5066070;28;20287;-67
2023/02/28 04:35:15;;;;;;;7.05;6.35;;;;;;;-2.33;100.00;101766.06;5080675;28;20192;-67
2023/02/28 04:37:42;;;;;;;8.77;6.65;;;;;;;-2.30;100.00;101763.41;5066280;28;20241;-68
2023/02/28 04:40:11;;;;;;;9.95;6.93;;;;;;;-2.26;100.00;101762.47;5065352;28;20309;-67
2023/02/28 04:42:38;;;;;;;8.10;7.32;;;;;;;-2.22;100.00;101755.44;5080961;28;20243;-67
2023/02/28 04:45:06;;;;;;;8.20;6.45;;;;;;;-2.25;100.00;101768.59;5072633;28;20318;-67
2023/02/28 04:47:32;;;;;;;10.07;7.70;;;;;;;-2.24;100.00;101768.56;5061092;28;20240;-67
2023/02/28 04:49:59;;;;;;;9.18;7.15;;;;;;;-2.22;100.00;101763.28;5069160;28;20233;-68
2023/02/28 04:52:25;;;;;;;9.90;8.20;;;;;;;-2.18;100.00;101771.09;5068821;28;20240;-67
2023/02/28 04:54:52;;;;;;;6.95;6.00;;;;;;;-2.20;100.00;101764.16;5078124;28;20658;-67
2023/02/28 04:57:20;;;;;;;14.68;7.55;;;;;;;-2.22;100.00;101763.28;5067797;28;20228;-67
2023/02/28 04:59:47;;;;;;;9.85;7.22;;;;;;;-2.28;100.00;101764.25;5079549;28;20251;-67
2023/02/28 05:02:13;;;;;;;8.68;6.93;;;;;;;-2.29;100.00;101760.78;5060262;28;20258;-68
2023/02/28 05:04:40;;;;;;;11.63;7.07;;;;;;;-2.28;100.00;101759.88;5060062;28;20262;-68
2023/02/28 05:07:06;;;;;;;10.52;7.25;;;;;;;-2.41;100.00;101763.56;5061277;28;20259;-68
2023/02/28 05:09:34;;;;;;;11.15;8.00;;;;;;;-2.44;100.00;101765.38;5066657;28;20228;-68
2023/02/28 05:12:00;;;;;;;18.92;8.07;;;;;;;-2.35;100.00;101767.84;5058675;28;20273;-67
2023/02/28 05:14:28;;;;;;;9.02;7.47;;;;;;;-2.31;100.00;101770.41;5067725;28;20386;-69
2023/02/28 05:16:55;;;;;;;11.07;7.65;;;;;;;-2.27;100.00;101777.34;5073345;28;20299;-68
2023/02/28 05:19:22;;;;;;;10.43;7.50;;;;;;;-2.21;100.00;101775.53;5071339;28;20213;-68
2023/02/28 05:21:53;;;;;;;13.70;8.10;;;;;;;-2.28;100.00;101775.59;5054858;28;20233;-68
2023/02/28 05:24:22;;;;;;;9.95;6.97;;;;;;;-2.34;100.00;101782.69;5065307;28;20211;-68
2023/02/28 05:26:50;;;;;;;11.07;8.35;;;;;;;-2.30;100.00;101781.75;5055254;28;20263;-68
2023/02/28 05:29:17;;;;;;;9.77;8.20;;;;;;;-2.32;100.00;101773.91;5062212;28;20202;-68
2023/02/28 05:31:45;;;;;;;10.07;7.88;;;;;;;-2.34;100.00;101777.44;5067830;28;20227;-68
2023/02/28 05:34:12;;;;;;;12.90;9.05;;;;;;;-2.37;100.00;101780.97;5071677;28;20237;-68
2023/02/28 05:36:39;;;;;;;13.88;9.15;;;;;;;-2.40;100.00;101788.00;5077723;28;20248;-67
2023/02/28 05:39:07;;;;;;;9.60;8.05;;;;;;;-2.42;100.00;101782.78;5060627;28;20218;-68
2023/02/28 05:41:33;;;;;;;10.25;8.52;;;;;;;-2.50;100.00;101784.63;5079424;28;20244;-68
2023/02/28 05:44:01;;;;;;;8.27;7.18;;;;;;;-2.42;100.00;101787.16;5072524;28;20280;-67
2023/02/28 05:46:27;;;;;;;13.65;7.85;;;;;;;-2.38;100.00;101789.69;5057765;28;20587;-67
2023/02/28 05:48:57;;;;;;;10.48;8.45;;;;;;;-2.33;100.00;101787.03;5064125;28;20219;-68
2023/02/28 05:51:24;;;;;;;10.80;8.80;;;;;;;-2.35;100.00;101783.56;5070837;28;20233;-67
2023/02/28 05:53:50;;;;;;;10.45;7.82;;;;;;;-2.34;100.00;101790.56;5063997;28;20208;-65
2023/02/28 05:56:17;;;;;;;29.17;8.70;;;;;;;-2.14;100.00;101785.03;5069291;28;20228;-66
2023/02/28 05:58:44;;;;;;;12.00;7.72;;;;;;;-2.95;100.00;101793.00;5064135;28;20225;-66
2023/02/28 06:01:23;;;;;;;15.18;8.93;;;;;;;-3.46;100.00;101785.63;5064513;28;20259;-67
2023/02/28 06:03:49;;;;;;;11.40;9.20;;;;;;;-3.72;100.00;101791.09;5060019;28;20274;-67
2023/02/28 06:06:17;;;;;;;10.13;8.20;;;;;;;-3.83;100.00;101791.16;5066661;28;20238;-67
2023/02/28 06:08:45;;;;;;;10.02;7.35;;;;;;;-3.92;100.00;101795.56;5071485;28;20261;-67
2023/02/28 06:11:12;;;;;;;10.50;7.85;;;;;;;-3.93;100.00;101794.72;5062626;28;20601;-67
2023/02/28 06:13:39;;;;;;;10.43;8.80;;;;;;;-3.90;100.00;101794.72;5061323;28;20228;-66
2023/02/28 06:16:06;;;;;;;13.45;8.95;;;;;;;-4.01;100.00;101793.88;5063721;28;20236;-67
2023/02/28 06:18:33;;;;;;;12.60;8.75;;;;;;;-4.02;100.00;101787.81;5067345;28;20235;-66
2023/02/28 06:21:00;;;;;;;11.20;8.50;;;;;;;-4.02;100.00;101794.78;5068639;28;20259;-65
2023/02/28 06:23:28;;;;;;;9.20;8.30;;;;;;;-3.95;100.00;101790.41;5073893;28;20314;-66
2023/02/28 06:25:57;;;;;;;9.88;8.50;;;;;;;-3.87;100.00;101789.47;5083433;28;20230;-66
2023/02/28 06:28:24;;;;;;;12.07;9.52;;;;;;;-3.78;100.00;101788.53;5083192;28;20250;-66
2023/02/28 06:30:51;;;;;;;9.43;8.45;;;;;;;-3.60;100.00;101790.13;5082468;28;20251;-65
2023/02/28 06:33:18;;;;;;;12.50;9.82;;;;;;;-3.63;100.00;101797.97;5082138;28;20219;-66
2023/02/28 06:35:45;;;;;;;11.55;8.85;;;;;;;-3.49;100.00;101796.16;5075849;28;20259;-65
2023/02/28 06:38:11;;;;;;;12.23;10.50;;;;;;;-3.32;100.00;101801.19;5082441;28;20200;-65
2023/02/28 06:40:39;;;;;;;11.65;9.68;;;;;;;-2.79;100.00;101798.09;5082113;28;20225;-66
2023/02/28 06:43:06;;;;;;;12.10;10.02;;;;;;;-2.21;100.00;101806.97;5079811;28;20210;-67
2023/02/28 06:45:33;;;;;;;11.77;9.75;;;;;;;-1.64;100.00;101809.63;5081999;28;20240;-65
2023/02/28 06:48:00;;;;;;;13.40;9.93;;;;;;;-1.02;100.00;101813.84;5082234;28;20709;-66
2023/02/28 06:50:29;;;;;;;11.23;10.03;;;;;;;-0.43;100.00;101816.19;5081059;28;20984;-66
2023/02/28 06:52:55;;;;;;;11.23;10.07;;;;;;;-0.04;100.00;101814.44;5081733;28;20521;-66
2023/02/28 06:55:22;;;;;;;10.47;9.17;;;;;;;0.32;100.00;101817.16;5082140;28;20428;-66
2023/02/28 06:57:50;;;;;;;14.70;9.70;;;;;;;-0.36;100.00;101819.53;5082636;28;20448;-66
2023/02/28 07:00:17;;;;;;;11.20;9.30;;;;;;;-1.12;100.00;101825.38;5081146;28;20449;-66
2023/02/28 07:02:44;;;;;;;13.10;10.10;;;;;;;-1.55;100.00;101825.19;5081249;28;20481;-67
2023/02/28 07:05:11;;;;;;;14.27;10.07;;;;;;;-0.59;100.00;101834.00;5081832;28;20507;-67
2023/02/28 07:07:40;;;;;;;10.17;9.17;;;;;;;0.86;100.00;101828.97;5082446;28;20464;-67
2023/02/28 07:10:07;;;;;;;14.70;9.93;;;;;;;2.16;100.00;101826.19;5081688;28;20471;-67
2023/02/28 07:12:34;;;;;;;14.57;10.03;;;;;;;3.15;100.00;101834.38;5080583;28;20514;-67
2023/02/28 07:15:03;;;;;;;12.53;10.17;;;;;;;3.89;100.00;101844.03;5082904;28;20459;-67
2023/02/28 07:17:29;;;;;;;11.27;8.87;;;;;;;4.57;94.92;101836.09;5080565;28;20479;-67
2023/02/28 07:19:56;;;;;;;10.37;8.37;;;;;;;4.93;87.37;101843.41;5078808;28;21016;-67
2023/02/28 07:22:22;;;;;;;11.50;8.33;;;;;;;4.70;84.30;101832.00;5070503;28;20477;-67
2023/02/28 07:24:49;;;;;;;13.57;8.80;;;;;;;3.18;92.16;101849.25;5073718;28;20503;-66
2023/02/28 07:27:23;;;;;;;8.20;7.20;;;;;;;1.82;100.00;101848.31;5080875;28;20579;-67
2023/02/28 07:29:50;;;;;;;8.93;8.03;;;;;;;1.22;100.00;101844.72;5081252;28;20516;-67
2023/02/28 07:32:18;;;;;;;9.90;8.60;;;;;;;2.37;100.00;101848.41;5081092;28;20512;-66
2023/02/28 07:34:44;;;;;;;8.93;7.93;;;;;;;4.12;99.33;101841.38;5080417;28;20527;-67
2023/02/28 07:37:11;;;;;;;10.23;7.97;;;;;;;5.41;87.31;101848.38;5080902;28;20781;-67
2023/02/28 07:39:38;;;;;;;10.87;8.00;;;;;;;6.03;77.17;101850.94;5081361;28;20484;-67
2023/02/28 07:42:06;;;;;;;13.83;7.87;;;;;;;6.20;75.78;101851.00;5080141;28;20479;-66
2023/02/28 07:44:32;;;;;;;10.87;7.83;;;;;;;6.50;71.38;101852.25;5081793;28;20557;-67
2023/02/28 07:46:59;;;;;;;9.60;8.07;;;;;;;6.88;69.02;101853.00;5081636;28;20589;-67
2023/02/28 07:49:27;;;;;;;9.47;8.23;;;;;;;6.61;66.52;101860.56;5080091;28;20463;-68
2023/02/28 07:51:53;;;;;;;13.20;9.73;;;;;;;5.73;73.76;101850.50;5080490;28;20709;-68
2023/02/28 07:54:20;;;;;;;10.70;8.93;;;;;;;5.81;80.65;101859.00;5081861;28;20460;-68
2023/02/28 07:56:47;;;;;;;11.30;8.37;;;;;;;5.91;73.90;101857.66;5079664;28;20464;-68
2023/02/28 07:59:13;;;;;;;8.50;6.90;;;;;;;4.27;84.28;101855.78;5080723;28;20516;-67
2023/02/28 08:01:40;;;;;;;10.57;8.13;;;;;;;4.29;91.59;101855.75;5081302;28;21018;-68
2023/02/28 08:04:06;;;;;;;8.67;6.83;;;;;;;4.05;90.77;101849.63;5079424;28;20484;-68
2023/02/28 08:06:35;;;;;;;7.50;6.47;;;;;;;7.06;72.88;101855.69;5079739;28;20555;-68
2023/02/28 08:09:01;;;;;;;10.20;7.50;;;;;;;8.22;66.22;101839.72;5081544;28;20440;-68
2023/02/28 08:11:28;;;;;;;9.97;7.90;;;;;;;9.70;54.98;101845.22;5079056;28;21051;-68
2023/02/28 08:13:55;;;;;;;8.97;7.20;;;;;;;8.13;53.86;101851.75;5080881;28;20449;-67
2023/02/28 08:16:22;;;;;;;10.20;7.43;;;;;;;7.73;61.78;101852.13;5080142;28;21334;-66
2023/02/28 08:18:50;;;;;;;8.13;7.33;;;;;;;5.93;69.99;101846.97;5062404;28;20543;-67
2023/02/28 08:21:16;;;;;;;7.00;5.43;;;;;;;6.17;74.18;101851.13;5065533;28;20473;-66
2023/02/28 08:23:44;;;;;;;8.10;7.00;;;;;;;7.46;61.01;101857.13;5068548;28;20468;-67
2023/02/28 08:26:11;;;;;;;7.90;6.50;;;;;;;6.22;69.75;101843.81;5079647;28;20508;-68
2023/02/28 08:28:38;;;;;;;7.83;6.97;;;;;;;9.53;56.78;101838.28;5080036;28;20440;-67
2023/02/28 08:31:10;;;;;;;7.83;6.37;;;;;;;10.22;46.93;101840.19;5079782;28;20495;-67
2023/02/28 08:33:38;;;;;;;8.60;5.87;;;;;;;10.67;45.07;101835.50;5079080;28;20491;-67
2023/02/28 08:36:06;;;;;;;7.60;6.80;;;;;;;10.06;45.62;101838.50;5080181;28;20475;-68
2023/02/28 08:38:33;;;;;;;8.33;6.10;;;;;;;10.21;47.00;101835.78;5080845;28;20445;-67
2023/02/28 08:41:02;;;;;;;5.80;4.80;;;;;;;11.02;43.84;101849.16;5079226;28;20469;-68
2023/02/28 08:43:29;;;;;;;6.80;5.13;;;;;;;12.31;38.38;101839.25;5079897;28;20515;-67
2023/02/28 08:45:57;;;;;;;5.37;4.87;;;;;;;13.14;35.58;101842.88;5080518;28;20515;-68
2023/02/28 08:48:24;;;;;;;6.17;5.57;;;;;;;10.98;37.58;101853.03;5079187;28;20470;-67
2023/02/28 08:50:57;;;;;;;5.67;5.10;;;;;;;9.06;43.67;101844.66;5079937;28;20472;-67
2023/02/28 08:53:24;;;;;;;6.43;5.67;;;;;;;11.18;42.33;101840.09;5075717;28;20456;-68
2023/02/28 08:55:57;;;;;;;6.77;6.07;;;;;;;12.77;39.74;101841.16;5071757;28;20484;-68
2023/02/28 08:58:25;;;;;;;8.40;7.00;;;;;;;12.73;37.95;101844.22;5080010;28;20440;-68
2023/02/28 09:00:52;;;;;;;9.60;6.30;;;;;;;14.04;36.56;101845.66;5079708;28;20472;-68
2023/02/28 09:03:19;;;;;;;9.80;6.20;;;;;;;13.54;35.58;101846.03;5078237;28;20491;-69
2023/02/28 09:05:53;;;;;;;7.27;5.70;;;;;;;13.38;36.69;101845.53;5079788;28;20476;-67
2023/02/28 09:08:19;;;;;;;5.83;5.23;;;;;;;12.49;36.27;101849.59;5079697;28;20504;-67
2023/02/28 09:10:46;;;;;;;5.77;5.07;;;;;;;11.17;37.47;101849.09;5078724;28;20722;-68
2023/02/28 09:13:13;;;;;;;5.57;4.37;;;;;;;11.17;39.52;101847.28;5080531;28;20499;-68
2023/02/28 09:15:41;;;;;;;7.97;4.87;;;;;;;8.05;48.16;101844.19;5079092;28;20467;-68
2023/02/28 09:18:08;;;;;;;7.17;4.83;;;;;;;8.00;46.16;101846.25;5079044;28;20534;-68
2023/02/28 09:20:34;;;;;;;4.63;4.07;;;;;;;11.60;39.08;101840.75;5079923;28;20488;-67
2023/02/28 09:23:01;;;;;;;5.93;5.00;;;;;;;7.89;47.12;101836.19;5079349;28;20503;-67
2023/02/28 09:25:28;;;;;;;6.87;4.73;;;;;;;10.92;41.58;101840.06;5078939;28;21013;-68
2023/02/28 09:27:54;;;;;;;6.90;5.03;;;;;;;10.50;39.84;101834.81;5080241;28;20484;-68
2023/02/28 09:30:21;;;;;;;5.50;4.40;;;;;;;8.39;44.34;101838.78;5078096;28;20491;-68
2023/02/28 09:32:51;;;;;;;4.83;4.40;;;;;;;6.41;53.24;101843.78;5078401;28;20483;-67
2023/02/28 09:35:18;;;;;;;8.30;4.13;;;;;;;7.98;45.97;101842.78;5079615;28;20767;-66
2023/02/28 09:37:45;;;;;;;4.70;3.80;;;;;;;7.58;46.83;101829.00;5079024;28;20452;-67
2023/02/28 09:40:14;;;;;;;6.90;3.97;;;;;;;6.68;52.40;101851.34;5080101;28;20507;-67
2023/02/28 09:42:41;;;;;;;6.10;4.30;;;;;;;4.57;63.27;101849.34;5072548;28;20490;-66
2023/02/28 09:45:24;;;;;;;4.53;3.73;;;;;;;3.84;65.82;101843.38;5083350;28;20515;-67
2023/02/28 09:47:53;;;;;;;5.30;3.80;;;;;;;3.20;70.45;101847.44;5082688;28;20436;-66
2023/02/28 09:50:24;;;;;;;6.20;4.40;;;;;;;3.69;74.07;101852.72;5083419;28;20963;-66
2023/02/28 09:52:51;;;;;;;5.03;4.00;;;;;;;5.67;62.60;101846.34;5082944;28;20538;-68
2023/02/28 09:55:22;;;;;;;4.03;3.23;;;;;;;7.63;53.04;101839.41;5082118;28;20468;-68
2023/02/28 09:57:50;;;;;;;4.77;3.40;;;;;;;7.34;47.34;101841.81;5083655;28;20456;-67
2023/02/28 10:00:20;;;;;;;3.00;2.70;;;;;;;9.38;40.50;101831.19;5081998;28;20527;-67
2023/02/28 10:03:04;;;;;;;4.13;2.90;;;;;;;9.89;40.12;101836.06;5082316;28;20498;-68
2023/02/28 10:05:35;;;;;;;5.67;2.73;;;;;;;8.26;43.47;101841.25;5079553;28;20529;-66
2023/02/28 10:08:08;;;;;;;3.73;2.33;;;;;;;8.00;43.72;101838.28;5082896;28;20468;-67
2023/02/28 10:10:39;;;;;;;3.43;2.60;;;;;;;6.32;48.65;101838.94;5081927;28;20468;-67
2023/02/28 10:13:13;;;;;;;3.37;2.80;;;;;;;7.62;45.62;101835.91;5083150;28;20476;-67
2023/02/28 10:15:40;;;;;;;6.00;2.63;;;;;;;7.92;43.57;101829.84;5082391;28;20476;-67
2023/02/28 10:18:12;;;;;;;6.80;3.77;;;;;;;6.80;44.82;101841.91;5082201;28;20467;-67
2023/02/28 10:20:41;;;;;;;5.87;4.17;;;;;;;6.29;49.03;101839.06;5082000;28;20921;-66
2023/02/28 10:23:13;;;;;;;2.07;1.50;;;;;;;5.50;50.76;101827.69;5082596;28;20939;-67
2023/02/28 10:25:40;;;;;;;2.50;1.50;;;;;;;5.89;51.04;101834.78;5082014;28;20480;-67
2023/02/28 10:28:12;;;;;;;1.80;1.47;;;;;;;5.17;50.65;101837.06;5082797;28;20451;-67
2023/02/28 10:30:40;;;;;;;2.70;1.90;;;;;;;5.63;49.11;101840.31;5082033;28;20552;-67
2023/02/28 10:33:15;;;;;;;1.93;1.10;;;;;;;6.01;47.85;101844.84;5081805;28;20860;-67
2023/02/28 10:35:43;;;;;;;4.90;1.50;;;;;;;6.30;49.43;101826.66;5078098;28;20521;-67
2023/02/28 10:38:18;;;;;;;1.60;1.50;;;;;;;5.40;52.96;101843.13;5067383;28;20478;-67
2023/02/28 10:40:45;;;;;;;2.80;1.60;;;;;;;7.40;46.61;101833.50;5083073;28;20894;-67
2023/02/28 10:43:24;;;;;;;1.97;1.30;;;;;;;6.00;48.44;101833.34;5082003;28;20453;-66
2023/02/28 10:45:57;;;;;;;2.40;1.70;;;;;;;6.54;47.81;101832.56;5081117;28;20530;-67
2023/02/28 10:48:33;;;;;;;2.00;1.60;;;;;;;5.97;50.02;101832.63;5082256;28;20480;-67
2023/02/28 10:51:03;;;;;;;2.27;1.77;;;;;;;6.79;47.23;101822.44;5080857;28;20518;-67
2023/02/28 10:53:34;;;;;;;2.53;1.87;;;;;;;5.89;49.98;101825.00;5082142;28;20483;-66
2023/02/28 10:56:02;;;;;;;3.40;2.57;;;;;;;5.89;49.98;101824.16;5081278;28;21016;-66
2023/02/28 10:58:30;;;;;;;3.40;2.07;;;;;;;5.39;49.56;101826.38;5081202;28;20456;-67
2023/02/28 11:00:57;;;;;;;2.03;1.33;;;;;;;7.01;46.70;101831.13;5068395;28;20547;-67
2023/02/28 11:03:29;;;;;;;2.00;1.57;;;;;;;4.37;53.92;101824.50;5081426;28;20455;-66
2023/02/28 11:05:55;;;;;;;2.03;1.33;;;;;;;4.26;55.95;101822.28;5082060;28;20486;-66
2023/02/28 11:08:25;;;;;;;3.17;1.37;;;;;;;4.02;55.52;101821.47;5073490;28;20459;-66
2023/02/28 11:10:56;;;;;;;5.90;1.80;;;;;;;4.94;54.68;101813.34;5062276;28;20469;-66
2023/02/28 11:13:35;;;;;;;2.40;1.70;;;;;;;5.43;51.25;101809.41;5081933;28;20542;-66
2023/02/28 11:16:04;;;;;;;2.50;1.50;;;;;;;6.45;49.22;101809.13;5080837;28;20494;-66
2023/02/28 11:18:32;;;;;;;2.90;1.50;;;;;;;5.99;49.69;101806.91;5081766;28;20456;-66
2023/02/28 11:21:00;;;;;;;4.20;2.93;;;;;;;5.25;50.85;101804.91;5081920;28;20517;-66
2023/02/28 11:23:31;;;;;;;1.90;1.40;;;;;;;5.74;50.21;101808.00;5080604;28;20459;-67
2023/02/28 11:26:01;;;;;;;1.87;1.47;;;;;;;5.03;49.23;101807.63;5081654;28;20508;-67